createdAt,value
2018-11-28T00:01:41.450Z,85.96
2018-11-28T00:04:09.467Z,86.04
2018-11-28T00:06:37.530Z,85.09
2018-11-28T00:09:08.951Z,85.15
2018-11-28T00:11:37.220Z,84.51
2018-11-28T00:14:05.227Z,85.31
2018-11-28T00:16:33.288Z,84.54
2018-11-28T00:19:01.351Z,85.04
2018-11-28T00:21:29.435Z,84.96
2018-11-28T00:23:57.438Z,84.29
2018-11-28T00:26:25.443Z,85.17
2018-11-28T00:28:53.439Z,84.97
2018-11-28T00:31:21.440Z,85.62
2018-11-28T00:33:49.440Z,85.34
2018-11-28T00:36:17.427Z,86.11
2018-11-28T00:38:45.476Z,85.96
2018-11-28T00:41:13.499Z,85.46
2018-11-28T00:43:41.507Z,85.95
2018-11-28T00:46:09.730Z,86.57
2018-11-28T00:48:37.791Z,85.57
2018-11-28T00:51:05.787Z,86.27
2018-11-28T00:53:33.843Z,85.84
2018-11-28T00:56:01.852Z,87.15
2018-11-28T00:58:29.867Z,87.28
2018-11-28T01:00:57.859Z,87.61
2018-11-28T01:03:25.862Z,86.82
2018-11-28T01:05:53.877Z,86.80
2018-11-28T01:08:21.879Z,87.09
2018-11-28T01:10:49.897Z,87.76
2018-11-28T01:13:17.884Z,86.99
2018-11-28T01:15:45.953Z,87.66
2018-11-28T01:18:14.064Z,87.70
2018-11-28T01:20:42.078Z,87.28
2018-11-28T01:23:10.079Z,87.06
2018-11-28T01:25:38.098Z,86.87
2018-11-28T01:28:06.187Z,86.88
2018-11-28T01:30:34.575Z,87.21
2018-11-28T01:33:02.632Z,87.09
2018-11-28T01:35:30.642Z,87.50
2018-11-28T01:37:58.630Z,86.74
2018-11-28T01:40:26.667Z,86.26
2018-11-28T01:42:54.743Z,86.66
2018-11-28T01:45:23.497Z,87.36
2018-11-28T01:47:51.559Z,87.49
2018-11-28T01:50:20.478Z,87.28
2018-11-28T01:52:48.456Z,87.10
2018-11-28T01:55:17.420Z,87.18
2018-11-28T01:57:45.439Z,85.57
2018-11-28T02:00:19.374Z,85.87
2018-11-28T02:02:48.485Z,86.48
2018-11-28T02:05:16.514Z,86.08
2018-11-28T02:07:44.525Z,86.33
2018-11-28T02:10:13.526Z,86.11
2018-11-28T02:12:41.550Z,86.18
2018-11-28T02:15:12.711Z,86.64
2018-11-28T02:17:40.711Z,86.64
2018-11-28T02:20:16.734Z,87.14
2018-11-28T02:22:45.133Z,87.22
2018-11-28T02:25:15.236Z,87.20
2018-11-28T02:27:43.395Z,87.94
2018-11-28T02:30:16.547Z,87.46
2018-11-28T02:32:45.031Z,87.21
2018-11-28T02:35:13.935Z,87.06
2018-11-28T02:37:41.973Z,87.10
2018-11-28T02:40:11.018Z,87.72
2018-11-28T02:42:39.050Z,87.00
2018-11-28T02:45:11.892Z,87.08
2018-11-28T02:47:39.883Z,87.32
2018-11-28T02:50:08.136Z,86.78
2018-11-28T02:52:36.143Z,87.12
2018-11-28T02:55:04.208Z,87.30
2018-11-28T02:57:33.234Z,86.51
2018-11-28T03:00:01.336Z,87.29
2018-11-28T03:02:29.347Z,86.77
2018-11-28T03:04:57.415Z,86.69
2018-11-28T03:07:25.416Z,87.20
2018-11-28T03:09:53.437Z,87.76
2018-11-28T03:12:21.543Z,87.71
2018-11-28T03:14:49.609Z,87.14
2018-11-28T03:17:22.985Z,87.48
2018-11-28T03:19:51.071Z,86.91
2018-11-28T03:22:19.149Z,87.59
2018-11-28T03:24:47.154Z,87.49
2018-11-28T03:27:15.168Z,88.09
2018-11-28T03:29:43.209Z,87.00
2018-11-28T03:32:11.222Z,87.28
2018-11-28T03:34:45.288Z,87.93
2018-11-28T03:37:10.803Z,86.85
2018-11-28T03:39:39.754Z,86.66
2018-11-28T03:42:07.758Z,86.82
2018-11-28T03:44:35.946Z,87.20
2018-11-28T03:47:04.038Z,86.59
2018-11-28T03:49:32.126Z,86.87
2018-11-28T03:52:00.134Z,86.38
2018-11-28T03:54:28.155Z,86.02
2018-11-28T03:56:56.183Z,85.99
2018-11-28T03:59:24.223Z,86.59
2018-11-28T04:01:52.204Z,86.84
2018-11-28T04:04:20.223Z,86.67
2018-11-28T04:06:48.259Z,85.52
2018-11-28T04:09:16.278Z,85.87
2018-11-28T04:11:44.283Z,85.70
2018-11-28T04:14:12.288Z,85.61
2018-11-28T04:16:40.295Z,85.56
2018-11-28T04:19:08.307Z,85.64
2018-11-28T04:21:36.331Z,84.93
2018-11-28T04:24:04.339Z,85.05
2018-11-28T04:26:32.356Z,84.81
2018-11-28T04:29:00.371Z,85.60
2018-11-28T04:31:28.402Z,84.60
2018-11-28T04:33:56.432Z,85.46
2018-11-28T04:36:24.549Z,85.15
2018-11-28T04:38:52.559Z,85.07
2018-11-28T04:41:20.584Z,85.01
2018-11-28T04:43:48.585Z,85.10
2018-11-28T04:46:16.597Z,85.11
2018-11-28T04:48:44.660Z,84.77
2018-11-28T04:51:12.679Z,84.18
2018-11-28T04:53:40.673Z,84.73
2018-11-28T04:56:08.681Z,84.65
2018-11-28T04:58:36.675Z,83.98
2018-11-28T05:01:04.699Z,84.01
2018-11-28T05:03:32.695Z,84.99
2018-11-28T05:06:00.711Z,84.94
2018-11-28T05:08:28.726Z,84.33
2018-11-28T05:10:56.735Z,84.46
2018-11-28T05:13:24.806Z,84.14
2018-11-28T05:15:52.821Z,83.92
2018-11-28T05:18:20.842Z,83.88
2018-11-28T05:20:48.884Z,84.25
2018-11-28T05:23:16.882Z,83.57
2018-11-28T05:25:44.980Z,83.76
2018-11-28T05:28:12.980Z,84.13
2018-11-28T05:30:40.994Z,84.45
2018-11-28T05:33:09.101Z,83.63
2018-11-28T05:35:39.199Z,83.82
2018-11-28T05:38:11.548Z,83.08
2018-11-28T05:40:39.576Z,83.60
2018-11-28T05:43:07.599Z,83.75
2018-11-28T05:45:35.703Z,84.33
2018-11-28T05:48:03.785Z,83.26
2018-11-28T05:50:31.788Z,84.05
2018-11-28T05:52:59.803Z,83.42
2018-11-28T05:55:27.880Z,83.51
2018-11-28T05:57:55.899Z,84.11
2018-11-28T06:00:27.121Z,83.59
2018-11-28T06:02:55.174Z,83.98
2018-11-28T06:05:23.178Z,84.12
2018-11-28T06:07:51.361Z,84.18
2018-11-28T06:10:19.386Z,84.31
2018-11-28T06:12:47.405Z,83.66
2018-11-28T06:15:15.508Z,83.45
2018-11-28T06:17:43.520Z,84.16
2018-11-28T06:20:12.799Z,84.26
2018-11-28T06:22:40.900Z,83.74
2018-11-28T06:25:15.963Z,83.81
2018-11-28T06:27:39.163Z,83.86
2018-11-28T06:30:11.479Z,84.08
2018-11-28T06:32:39.543Z,83.96
2018-11-28T06:35:08.430Z,83.91
2018-11-28T06:37:36.747Z,84.55
2018-11-28T06:40:07.553Z,84.16
2018-11-28T06:42:35.555Z,84.62
2018-11-28T06:45:03.559Z,84.48
2018-11-28T06:47:31.607Z,84.64
2018-11-28T06:49:59.591Z,83.99
2018-11-28T06:52:27.640Z,84.44
2018-11-28T06:54:55.643Z,84.28
2018-11-28T06:57:23.704Z,84.35
2018-11-28T06:59:51.742Z,84.81
2018-11-28T07:02:19.746Z,85.29
2018-11-28T07:04:47.983Z,85.01
2018-11-28T07:07:15.805Z,84.73
2018-11-28T07:09:43.824Z,85.30
2018-11-28T07:12:11.874Z,84.62
2018-11-28T07:14:39.993Z,84.39
2018-11-28T07:17:07.991Z,84.45
2018-11-28T07:19:35.999Z,85.01
2018-11-28T07:22:03.991Z,85.12
2018-11-28T07:24:32.047Z,84.39
2018-11-28T07:27:00.035Z,84.71
2018-11-28T07:29:28.136Z,84.63
2018-11-28T07:31:56.144Z,84.21
2018-11-28T07:34:24.187Z,84.13
2018-11-28T07:36:52.149Z,83.58
2018-11-28T07:39:20.163Z,83.75
2018-11-28T07:41:48.158Z,83.74
2018-11-28T07:44:16.154Z,82.66
2018-11-28T07:46:44.147Z,83.12
2018-11-28T07:49:12.172Z,82.65
2018-11-28T07:51:40.190Z,83.31
2018-11-28T07:54:08.199Z,81.76
2018-11-28T07:56:36.254Z,78.49
2018-11-28T07:59:04.318Z,75.40
2018-11-28T08:01:32.374Z,74.21
2018-11-28T08:04:00.369Z,72.23
2018-11-28T08:06:28.354Z,69.85
2018-11-28T08:08:58.262Z,68.68
2018-11-28T08:11:26.349Z,67.03
2018-11-28T08:13:54.484Z,67.05
2018-11-28T08:16:22.491Z,65.93
2018-11-28T08:18:50.503Z,66.35
2018-11-28T08:21:18.522Z,64.45
2018-11-28T08:23:46.507Z,64.38
2018-11-28T08:26:14.612Z,64.97
2018-11-28T08:28:42.617Z,64.10
2018-11-28T08:31:10.847Z,64.95
2018-11-28T08:33:38.856Z,64.79
2018-11-28T08:36:06.854Z,64.08
2018-11-28T08:38:34.835Z,63.52
2018-11-28T08:41:02.845Z,63.02
2018-11-28T08:43:30.839Z,62.41
2018-11-28T08:45:58.844Z,62.96
2018-11-28T08:48:26.857Z,62.59
2018-11-28T08:50:54.871Z,63.02
2018-11-28T08:53:23.987Z,63.78
2018-11-28T08:55:52.019Z,63.62
2018-11-28T08:58:20.004Z,66.22
2018-11-28T09:00:48.031Z,67.53
2018-11-28T09:03:16.067Z,67.89
2018-11-28T09:05:44.096Z,67.31
2018-11-28T09:08:12.088Z,68.39
2018-11-28T09:10:40.111Z,68.54
2018-11-28T09:13:08.095Z,67.95
2018-11-28T09:15:36.160Z,68.56
2018-11-28T09:18:04.226Z,67.43
2018-11-28T09:20:32.238Z,68.43
2018-11-28T09:23:00.353Z,69.31
2018-11-28T09:25:28.382Z,70.52
2018-11-28T09:27:57.584Z,70.95
2018-11-28T09:30:25.688Z,70.65
2018-11-28T09:32:53.780Z,71.58
2018-11-28T09:35:21.776Z,70.89
2018-11-28T09:37:49.781Z,71.10
2018-11-28T09:40:26.930Z,71.88
2018-11-28T09:42:56.028Z,72.22
2018-11-28T09:45:24.114Z,71.68
2018-11-28T09:47:52.137Z,70.83
2018-11-28T09:50:21.125Z,69.65
2018-11-28T09:52:49.143Z,70.01
2018-11-28T09:55:20.843Z,70.62
2018-11-28T09:57:48.940Z,71.11
2018-11-28T10:00:19.521Z,70.80
2018-11-28T10:02:47.962Z,71.64
2018-11-28T10:05:21.108Z,72.07
2018-11-28T10:07:49.154Z,72.41
2018-11-28T10:10:17.210Z,73.54
2018-11-28T10:12:45.231Z,72.97
2018-11-28T10:15:21.979Z,72.38
2018-11-28T10:17:49.971Z,72.55
2018-11-28T10:20:18.609Z,72.98
2018-11-28T10:22:47.087Z,72.47
2018-11-28T10:25:17.120Z,71.94
2018-11-28T10:27:48.243Z,72.08
2018-11-28T10:30:19.294Z,72.83
2018-11-28T10:32:47.947Z,73.11
2018-11-28T10:35:15.942Z,72.05
2018-11-28T10:37:44.034Z,71.25
2018-11-28T10:40:17.190Z,70.73
2018-11-28T10:42:45.799Z,71.76
2018-11-28T10:45:15.003Z,71.62
2018-11-28T10:47:43.008Z,72.69
2018-11-28T10:50:13.077Z,72.01
2018-11-28T10:52:41.073Z,72.49
2018-11-28T10:55:18.962Z,71.47
2018-11-28T10:57:46.962Z,71.72
2018-11-28T11:00:24.227Z,72.08
2018-11-28T11:02:57.670Z,71.72
2018-11-28T11:05:31.230Z,71.42
2018-11-28T11:08:04.807Z,71.19
2018-11-28T11:10:38.320Z,71.31
2018-11-28T11:13:12.149Z,71.54
2018-11-28T11:15:40.251Z,71.35
2018-11-28T11:18:11.290Z,71.68
2018-11-28T11:20:39.297Z,72.39
2018-11-28T11:23:08.423Z,72.56
2018-11-28T11:25:36.452Z,71.76
2018-11-28T11:28:04.655Z,71.96
2018-11-28T11:30:32.796Z,72.03
2018-11-28T11:33:00.938Z,71.88
2018-11-28T11:35:29.056Z,71.62
2018-11-28T11:37:57.202Z,72.50
2018-11-28T11:40:25.354Z,72.61
2018-11-28T11:42:53.541Z,72.14
2018-11-28T11:45:21.671Z,72.46
2018-11-28T11:47:49.842Z,71.89
2018-11-28T11:50:18.735Z,71.44
2018-11-28T11:52:46.892Z,72.73
2018-11-28T11:55:17.955Z,72.25
2018-11-28T11:57:46.266Z,72.81
2018-11-28T12:00:17.655Z,72.49
2018-11-28T12:02:48.435Z,72.76
2018-11-28T12:05:16.429Z,72.45
2018-11-28T12:07:44.495Z,73.02
2018-11-28T12:10:13.452Z,72.57
2018-11-28T12:12:41.500Z,72.91
2018-11-28T12:15:13.414Z,72.55
2018-11-28T12:17:42.207Z,72.17
2018-11-28T12:20:18.835Z,72.23
2018-11-28T12:22:46.867Z,70.75
2018-11-28T12:25:14.903Z,71.24
2018-11-28T12:27:42.908Z,69.65
2018-11-28T12:30:12.198Z,69.50
2018-11-28T12:32:40.218Z,69.26
2018-11-28T12:35:10.848Z,68.96
2018-11-28T12:37:38.970Z,68.43
2018-11-28T12:40:09.520Z,68.83
2018-11-28T12:42:37.529Z,68.02
2018-11-28T12:45:17.650Z,68.40
2018-11-28T12:47:46.311Z,68.92
2018-11-28T12:50:23.619Z,69.19
2018-11-28T12:52:52.551Z,69.07
2018-11-28T12:55:21.140Z,69.57
2018-11-28T12:57:49.513Z,69.96
2018-11-28T13:00:18.567Z,70.13
2018-11-28T13:02:46.651Z,70.75
2018-11-28T13:05:18.519Z,70.97
2018-11-28T13:07:46.519Z,70.36
2018-11-28T13:10:16.739Z,70.57
2018-11-28T13:12:45.425Z,70.10
2018-11-28T13:15:14.387Z,70.14
2018-11-28T13:17:42.470Z,70.51
2018-11-28T13:20:11.591Z,70.65
2018-11-28T13:22:39.707Z,70.14
2018-11-28T13:25:10.371Z,70.91
2018-11-28T13:27:38.371Z,70.75
2018-11-28T13:30:14.943Z,71.18
2018-11-28T13:32:43.463Z,71.42
2018-11-28T13:35:13.387Z,70.73
2018-11-28T13:37:41.949Z,70.81
2018-11-28T13:40:11.260Z,71.47
2018-11-28T13:42:39.276Z,71.40
2018-11-28T13:45:12.880Z,70.85
2018-11-28T13:47:41.475Z,70.65
2018-11-28T13:50:10.377Z,71.18
2018-11-28T13:52:38.402Z,71.44
2018-11-28T13:55:37.353Z,71.83
2018-11-28T13:57:39.218Z,71.92
2018-11-28T14:00:09.047Z,72.12
2018-11-28T14:02:37.302Z,72.79
2018-11-28T14:05:09.150Z,72.20
2018-11-28T14:07:37.135Z,73.26
2018-11-28T14:10:09.643Z,73.30
2018-11-28T14:12:37.766Z,73.84
2018-11-28T14:15:10.222Z,72.78
2018-11-28T14:17:38.344Z,73.59
2018-11-28T14:20:08.327Z,74.08
2018-11-28T14:22:36.369Z,74.26
2018-11-28T14:27:33.893Z,74.48
2018-11-28T14:30:01.950Z,73.83
2018-11-28T14:32:29.994Z,73.88
2018-11-28T14:34:58.011Z,74.19
2018-11-28T14:37:26.087Z,75.16
2018-11-28T14:39:54.119Z,75.28
2018-11-28T14:42:22.110Z,75.08
2018-11-28T14:44:50.146Z,75.44
2018-11-28T14:47:18.171Z,75.62
2018-11-28T14:49:46.200Z,74.63
2018-11-28T14:52:14.322Z,74.22
2018-11-28T14:54:42.336Z,75.85
2018-11-28T14:57:10.330Z,75.46
2018-11-28T14:59:40.614Z,75.42
2018-11-28T15:02:06.641Z,75.69
2018-11-28T15:04:34.723Z,75.42
2018-11-28T15:07:02.795Z,75.70
2018-11-28T15:09:37.178Z,75.92
2018-11-28T15:12:11.604Z,75.41
2018-11-28T15:14:36.570Z,76.58
2018-11-28T15:17:04.655Z,75.84
2018-11-28T15:19:32.712Z,75.75
2018-11-28T15:22:00.690Z,76.12
2018-11-28T15:24:28.741Z,76.12
2018-11-28T15:26:56.783Z,75.97
2018-11-28T15:29:24.884Z,76.14
2018-11-28T15:31:52.905Z,76.47
2018-11-28T15:34:21.055Z,76.60
2018-11-28T15:36:49.106Z,77.26
2018-11-28T15:39:17.119Z,76.76
2018-11-28T15:41:45.141Z,77.49
2018-11-28T15:44:13.211Z,76.98
2018-11-28T15:46:41.228Z,77.76
2018-11-28T15:49:09.247Z,78.04
2018-11-28T15:51:37.311Z,77.21
2018-11-28T15:54:05.323Z,77.05
2018-11-28T15:56:33.332Z,77.05
2018-11-28T15:59:01.335Z,77.40
2018-11-28T16:01:29.426Z,78.10
2018-11-28T16:03:57.427Z,77.57
2018-11-28T16:06:25.479Z,78.09
2018-11-28T16:08:54.898Z,77.52
2018-11-28T16:11:23.768Z,78.06
2018-11-28T16:13:51.762Z,77.52
2018-11-28T16:16:19.773Z,77.88
2018-11-28T16:18:47.781Z,78.64
2018-11-28T16:21:15.810Z,78.43
2018-11-28T16:23:43.800Z,78.29
2018-11-28T16:26:11.803Z,77.81
2018-11-28T16:28:39.842Z,78.55
2018-11-28T16:31:07.843Z,78.26
2018-11-28T16:33:35.888Z,77.96
2018-11-28T16:36:03.934Z,78.39
2018-11-28T16:38:31.993Z,78.61
2018-11-28T16:41:00.027Z,78.37
2018-11-28T16:43:28.042Z,78.05
2018-11-28T16:45:56.066Z,78.44
2018-11-28T16:48:24.128Z,77.56
2018-11-28T16:50:52.137Z,78.01
2018-11-28T16:53:20.158Z,78.14
2018-11-28T16:55:48.304Z,79.08
2018-11-28T16:58:16.322Z,78.22
2018-11-28T17:00:44.655Z,79.11
2018-11-28T17:03:12.691Z,78.37
2018-11-28T17:05:40.694Z,79.11
2018-11-28T17:08:09.468Z,78.46
2018-11-28T17:10:37.522Z,78.60
2018-11-28T17:13:06.269Z,78.01
2018-11-28T17:15:34.278Z,78.37
2018-11-28T17:18:02.292Z,77.97
2018-11-28T17:20:30.292Z,78.44
2018-11-28T17:25:27.114Z,77.82
2018-11-28T17:27:55.121Z,78.11
2018-11-28T17:30:25.221Z,78.78
2018-11-28T17:32:53.216Z,78.15
2018-11-28T17:35:21.328Z,78.73
2018-11-28T17:37:49.378Z,78.53
2018-11-28T17:40:18.419Z,78.19
2018-11-28T17:42:48.667Z,77.66
2018-11-28T17:45:17.441Z,77.26
2018-11-28T17:47:45.521Z,77.26
2018-11-28T17:50:22.621Z,78.12
2018-11-28T17:52:55.467Z,77.88
2018-11-28T17:55:23.752Z,78.14
2018-11-28T17:57:51.951Z,78.12
2018-11-28T18:00:20.420Z,77.73
2018-11-28T18:02:48.436Z,77.29
2018-11-28T18:05:16.961Z,78.06
2018-11-28T18:07:45.055Z,78.20
2018-11-28T18:10:16.402Z,77.44
2018-11-28T18:12:55.910Z,77.52
2018-11-28T18:15:24.139Z,78.23
2018-11-28T18:17:53.463Z,78.06
2018-11-28T18:20:21.576Z,77.89
2018-11-28T18:22:49.602Z,77.98
2018-11-28T18:25:19.710Z,77.58
2018-11-28T18:27:47.760Z,77.45
2018-11-28T18:30:15.776Z,77.72
2018-11-28T18:32:43.803Z,78.06
2018-11-28T18:35:12.149Z,78.44
2018-11-28T18:37:40.171Z,78.09
2018-11-28T18:40:10.615Z,78.27
2018-11-28T18:42:38.860Z,78.12
2018-11-28T18:45:18.482Z,77.60
2018-11-28T18:47:46.231Z,77.58
2018-11-28T18:50:14.575Z,77.68
2018-11-28T18:52:42.780Z,77.61
2018-11-28T18:55:16.582Z,78.28
2018-11-28T18:57:40.008Z,77.68
2018-11-28T19:00:12.740Z,77.24
2018-11-28T19:02:41.207Z,77.89
2018-11-28T19:05:09.558Z,77.50
2018-11-28T19:07:37.675Z,77.32
2018-11-28T19:10:09.626Z,77.79
2018-11-28T19:12:37.662Z,77.75
2018-11-28T19:15:08.839Z,77.34
2018-11-28T19:17:36.984Z,77.99
2018-11-28T19:20:07.151Z,77.32
2018-11-28T19:22:35.177Z,77.92
2018-11-28T19:25:03.287Z,77.41
2018-11-28T19:27:31.308Z,77.70
2018-11-28T19:29:59.423Z,76.74
2018-11-28T19:32:27.534Z,77.91
2018-11-28T19:34:55.736Z,77.47
2018-11-28T19:37:23.792Z,77.86
2018-11-28T19:39:51.833Z,77.97
2018-11-28T19:42:19.899Z,77.53
2018-11-28T19:44:47.959Z,78.14
2018-11-28T19:47:15.971Z,78.00
2018-11-28T19:49:44.128Z,78.02
2018-11-28T19:52:12.164Z,78.05
2018-11-28T19:54:40.239Z,77.48
2018-11-28T19:57:08.371Z,77.66
2018-11-28T20:02:05.746Z,77.32
2018-11-28T20:04:33.853Z,77.41
2018-11-28T20:07:01.889Z,77.12
2018-11-28T20:09:29.918Z,77.01
2018-11-28T20:11:57.986Z,77.60
2018-11-28T20:14:25.999Z,77.69
2018-11-28T20:16:54.199Z,77.25
2018-11-28T20:19:22.335Z,77.74
2018-11-28T20:21:50.377Z,77.29
2018-11-28T20:24:18.556Z,77.66
2018-11-28T20:26:46.750Z,77.39
2018-11-28T20:29:14.794Z,78.16
2018-11-28T20:31:42.843Z,77.98
2018-11-28T20:34:10.874Z,77.29
2018-11-28T20:36:38.913Z,77.31
2018-11-28T20:39:08.943Z,77.06
2018-11-28T20:41:36.973Z,77.17
2018-11-28T20:44:05.163Z,77.53
2018-11-28T20:46:33.336Z,76.90
2018-11-28T20:49:01.425Z,77.73
2018-11-28T20:51:29.486Z,76.65
2018-11-28T20:53:57.866Z,77.22
2018-11-28T20:56:25.932Z,77.02
2018-11-28T20:58:54.047Z,77.29
2018-11-28T21:01:22.169Z,76.62
2018-11-28T21:03:50.182Z,76.92
2018-11-28T21:06:18.313Z,77.33
2018-11-28T21:08:46.325Z,76.84
2018-11-28T21:11:14.334Z,76.41
2018-11-28T21:13:42.415Z,76.39
2018-11-28T21:16:10.427Z,76.79
2018-11-28T21:18:38.527Z,76.57
2018-11-28T21:21:07.610Z,76.14
2018-11-28T21:23:35.635Z,76.36
2018-11-28T21:26:03.722Z,76.76
2018-11-28T21:28:31.793Z,76.46
2018-11-28T21:30:59.811Z,76.26
2018-11-28T21:33:28.146Z,76.92
2018-11-28T21:35:56.296Z,77.03
2018-11-28T21:38:24.379Z,75.88
2018-11-28T21:40:52.534Z,76.48
2018-11-28T21:43:20.679Z,75.84
2018-11-28T21:45:48.686Z,75.57
2018-11-28T21:48:16.708Z,76.06
2018-11-28T21:50:44.755Z,75.14
2018-11-28T21:53:12.814Z,75.01
2018-11-28T21:55:40.837Z,75.10
2018-11-28T21:58:08.963Z,76.05
2018-11-28T22:00:37.287Z,76.45
2018-11-28T22:03:06.681Z,76.94
2018-11-28T22:05:34.714Z,77.07
2018-11-28T22:08:02.914Z,77.46
2018-11-28T22:10:31.234Z,77.75
2018-11-28T22:12:59.454Z,77.99
2018-11-28T22:15:27.497Z,77.66
2018-11-28T22:17:56.591Z,79.11
2018-11-28T22:20:25.295Z,79.17
2018-11-28T22:22:53.407Z,79.44
2018-11-28T22:25:23.306Z,79.84
2018-11-28T22:27:51.371Z,80.66
2018-11-28T22:30:21.459Z,81.37
2018-11-28T22:32:51.543Z,81.24
2018-11-28T22:35:19.563Z,81.63
2018-11-28T22:37:47.616Z,81.25
2018-11-28T22:40:22.808Z,81.91
2018-11-28T22:42:50.907Z,83.34
2018-11-28T22:45:20.956Z,82.65
2018-11-28T22:47:49.007Z,84.42
2018-11-28T22:50:17.011Z,84.68
2018-11-28T22:52:45.091Z,84.35
2018-11-28T22:55:16.052Z,85.44
2018-11-28T22:57:44.150Z,84.80
2018-11-28T23:00:14.117Z,84.81
2018-11-28T23:02:49.334Z,85.09
2018-11-28T23:05:17.375Z,84.68
2018-11-28T23:07:45.545Z,84.84
2018-11-28T23:10:13.551Z,84.83
2018-11-28T23:12:41.564Z,85.14
2018-11-28T23:15:09.598Z,85.60
2018-11-28T23:17:37.609Z,85.42
2018-11-28T23:20:06.425Z,86.75
2018-11-28T23:22:34.433Z,87.47
2018-11-28T23:25:02.494Z,86.51
2018-11-28T23:27:30.554Z,87.36
2018-11-28T23:29:58.584Z,86.42
2018-11-28T23:32:26.584Z,86.79
2018-11-28T23:34:54.635Z,87.10
2018-11-28T23:37:22.666Z,86.84
2018-11-28T23:39:50.668Z,86.69
2018-11-28T23:42:18.664Z,87.62
2018-11-28T23:44:46.671Z,87.33
2018-11-28T23:47:14.679Z,87.00
2018-11-28T23:49:42.682Z,86.57
2018-11-28T23:52:10.682Z,86.58
2018-11-28T23:54:38.718Z,86.39
2018-11-28T23:57:06.706Z,86.05
2018-11-28T23:59:34.714Z,86.31
